首页
METAR-TAF:

METAR-TAF

机场 :

Northwest Florida Regional Airport / Eglin Air Force Base

瓦尔帕莱索, 佛罗里达州, 美国

纬度: 30-29N, 经度: 086-31W, 海拔: 26米

当前天气观测

该预报发布于31分钟前的22:56 UTC
风速6节,风向南转西南
温度 28°C
湿度 66%
气压 1016 hPa
能見度: 16.1公里
散云层高于6500英尺
多云层高于22000英尺

METAR: KVPS 132256Z AUTO 20006KT 10SM SCT065 BKN220 28/21 A2999 RMK AO2 SLP162 T02770212 $

时间: 18:27 (23:27 UTC)

预报

该预报发布于6小时和27分钟前的17:00 UTC
预报有效从13日的 17点(UTC)到 14日的 23点(UTC)
风速6节,风向北转西北
能見度: 1301
少量云层高于2800英尺
多云层高于4000英尺
多云层高于8000英尺
多云层高于18000英尺
附近有阵雨
成为
从 14日的 04点(UTC)到 14日的 05点(UTC)
风速7节,风向东北
能見度: 9000
多云层高于2500英尺
多云层高于5000英尺
多云层高于15000英尺
小阵雨
成为
从 14日的 07点(UTC)到 14日的 08点(UTC)
风速5节,风向东转东北
能见度10公里或以上
少量云层高于2000英尺
多云层高于5000英尺
多云层高于15000英尺
成为
从 14日的 12点(UTC)到 14日的 13点(UTC)
风速6节,风向
能见度10公里或以上
散云层高于2000英尺
散云层高于5000英尺
多云层高于12000英尺
成为
从 14日的 16点(UTC)到 14日的 17点(UTC)
风速10节,风向南转西南
能见度10公里或以上
多云层高于2000英尺
多云层高于5000英尺
阴天层高于12000英尺
小阵雨

TAF: KVPS 131700Z 1317/1423 19010KT 9999 VCSH FEW028 BKN040 BKN080 BKN180 QNH2997INS WND 34006KT AFT 1301 BECMG 1404/1405 04007KT 9000 -SHRA BKN025 BKN050 BKN150 QNH3000INS BECMG 1407/1408 06005KT 9999 NSW FEW020 BKN050 BKN150 QNH3002INS BECMG 1412/1413 08006KT 9999 SCT020 SCT050 BKN120 QNH3004INS BECMG 1416/1417 20010KT 9999 -SHRA BKN020 BKN050 OVC120 QNH2999INS TX30/1318Z TN19/1411Z

超过4000个机场的气象观测和天气预报(METAR&TAF报告)。

可查询的气象台以黄色和红色小点在地图上表示。

将鼠标移到小点上方,可查看气象台名称。

然后点击查看天气观测和预报。

如需切换地图:点击带黑十字的绿色按钮放大地图;点击带横线的绿色按钮缩小地图;或者点击绿色箭头查看邻近地区的地图。


METAR-TAF: